createdAt,value
2019-01-12T00:01:21.723Z,1.90
2019-01-12T00:03:58.492Z,1.60
2019-01-12T00:06:32.892Z,1.83
2019-01-12T00:09:18.024Z,1.63
2019-01-12T00:11:53.295Z,1.90
2019-01-12T00:14:24.704Z,1.50
2019-01-12T00:16:57.054Z,1.67
2019-01-12T00:19:42.639Z,1.80
2019-01-12T00:22:35.682Z,2.07
2019-01-12T00:25:30.380Z,1.70
2019-01-12T00:28:49.909Z,1.80
2019-01-12T00:31:47.151Z,2.10
2019-01-12T00:34:46.669Z,1.70
2019-01-12T00:37:44.200Z,1.90
2019-01-12T00:40:29.072Z,1.90
2019-01-12T00:43:22.931Z,1.80
2019-01-12T00:49:01.251Z,1.80
2019-01-12T00:51:49.065Z,1.87
2019-01-12T00:54:48.519Z,2.00
2019-01-12T00:57:50.687Z,1.93
2019-01-12T01:03:39.423Z,2.60
2019-01-12T01:06:19.845Z,1.93
2019-01-12T01:09:01.523Z,1.90
2019-01-12T01:11:38.151Z,1.70
2019-01-12T01:14:28.252Z,1.80
2019-01-12T01:17:36.550Z,1.80
2019-01-12T01:20:41.165Z,1.80
2019-01-12T01:23:10.498Z,1.97
2019-01-12T01:25:59.742Z,1.60
2019-01-12T01:28:50.354Z,1.73
2019-01-12T01:32:12.358Z,2.07
2019-01-12T01:35:20.836Z,1.77
2019-01-12T01:38:03.545Z,1.57
2019-01-12T01:41:00.969Z,2.17
2019-01-12T01:44:05.324Z,1.67
2019-01-12T01:46:45.089Z,1.70
2019-01-12T01:49:43.803Z,1.70
2019-01-12T01:52:52.210Z,1.70
2019-01-12T02:11:13.678Z,1.80
2019-01-12T02:16:17.693Z,1.90
2019-01-12T02:19:04.221Z,1.90
2019-01-12T02:34:06.924Z,2.00
2019-01-12T02:35:24.992Z,1.87
2019-01-12T02:38:13.997Z,1.87
2019-01-12T02:41:23.704Z,1.80
2019-01-12T02:44:04.977Z,1.80
2019-01-12T02:47:04.750Z,1.60
2019-01-12T02:49:52.966Z,1.90
2019-01-12T02:59:30.492Z,1.73
2019-01-12T03:02:47.567Z,1.90
2019-01-12T03:06:02.338Z,1.83
2019-01-12T03:08:28.071Z,1.90
2019-01-12T03:11:00.724Z,1.97
2019-01-12T03:16:48.816Z,1.80
2019-01-12T03:22:58.810Z,2.00
2019-01-12T03:25:43.791Z,1.90
2019-01-12T03:28:56.077Z,1.97
2019-01-12T03:35:51.356Z,1.90
2019-01-12T03:48:24.680Z,2.40
2019-01-12T03:54:10.721Z,2.00
2019-01-12T03:56:46.075Z,1.87
2019-01-12T03:59:27.369Z,1.90
2019-01-12T04:02:00.091Z,2.07
2019-01-12T04:04:34.832Z,1.87
2019-01-12T04:07:10.376Z,2.00
2019-01-12T04:09:45.364Z,2.10
2019-01-12T04:12:18.451Z,1.80
2019-01-12T04:18:12.487Z,1.97
2019-01-12T04:21:09.003Z,1.70
2019-01-12T04:24:21.057Z,1.77
2019-01-12T04:32:07.956Z,1.77
2019-01-12T04:34:50.347Z,2.10
2019-01-12T04:37:33.347Z,1.80
2019-01-12T04:40:31.818Z,2.03
2019-01-12T04:43:47.701Z,2.13
2019-01-12T04:47:03.911Z,2.13
2019-01-12T04:49:45.566Z,1.80
2019-01-12T04:52:42.701Z,2.07
2019-01-12T04:55:42.127Z,1.83
2019-01-12T04:58:41.126Z,1.70
2019-01-12T05:01:29.241Z,2.00
2019-01-12T05:04:08.798Z,2.07
2019-01-12T05:06:49.475Z,2.00
2019-01-12T05:09:49.799Z,2.43
2019-01-12T05:16:04.477Z,2.27
2019-01-12T05:18:53.416Z,2.00
2019-01-12T05:21:37.049Z,1.80
2019-01-12T05:24:40.413Z,1.70
2019-01-12T05:27:51.620Z,1.90
2019-01-12T05:31:16.135Z,2.07
2019-01-12T05:43:41.592Z,2.20
2019-01-12T05:46:54.467Z,1.90
2019-01-12T05:49:30.666Z,2.10
2019-01-12T05:52:10.459Z,1.90
2019-01-12T05:54:43.236Z,2.27
2019-01-12T05:57:42.003Z,2.20
2019-01-12T06:00:44.527Z,1.87
2019-01-12T06:04:19.225Z,2.13
2019-01-12T06:06:30.257Z,2.00
2019-01-12T06:12:38.113Z,2.27
2019-01-12T06:15:19.688Z,2.10
2019-01-12T06:18:32.390Z,2.23
2019-01-12T06:21:40.284Z,1.83
2019-01-12T06:24:47.380Z,1.80
2019-01-12T06:27:15.717Z,2.00
2019-01-12T06:30:03.150Z,1.90
2019-01-12T06:32:47.269Z,2.47
2019-01-12T06:35:15.612Z,1.90
2019-01-12T06:38:06.882Z,2.10
2019-01-12T06:41:04.902Z,2.13
2019-01-12T06:44:03.696Z,1.77
2019-01-12T06:49:57.952Z,2.30
2019-01-12T06:52:59.345Z,2.33
2019-01-12T06:55:58.951Z,1.90
2019-01-12T06:58:41.786Z,1.83
2019-01-12T07:08:01.114Z,1.70
2019-01-12T07:08:32.031Z,2.00
2019-01-12T07:14:31.915Z,2.60
2019-01-12T07:17:09.569Z,2.10
2019-01-12T07:26:17.556Z,2.20
2019-01-12T07:29:18.911Z,2.50
2019-01-12T07:32:34.409Z,2.20
2019-01-12T07:35:40.303Z,1.97
2019-01-12T07:39:40.183Z,2.10
2019-01-12T07:45:29.394Z,2.07
2019-01-12T07:48:26.518Z,2.20
2019-01-12T07:55:20.401Z,2.10
2019-01-12T07:58:27.253Z,1.90
2019-01-12T08:01:13.723Z,1.93
2019-01-12T08:11:05.024Z,2.57
2019-01-12T08:13:55.636Z,2.67
2019-01-12T08:16:55.830Z,2.47
2019-01-12T08:20:02.060Z,3.00
2019-01-12T08:22:22.655Z,3.33
2019-01-12T08:24:57.960Z,2.17
2019-01-12T08:27:54.670Z,2.20
2019-01-12T08:30:34.031Z,2.30
2019-01-12T08:33:40.929Z,2.27
2019-01-12T08:36:20.148Z,2.30
2019-01-12T08:39:22.083Z,2.30
2019-01-12T08:42:09.086Z,2.00
2019-01-12T08:44:50.053Z,1.90
2019-01-12T08:48:29.242Z,2.40
2019-01-12T08:54:36.354Z,2.40
2019-01-12T08:57:29.357Z,2.03
2019-01-12T09:04:04.924Z,1.80
2019-01-12T09:07:48.798Z,2.10
2019-01-12T09:10:37.660Z,1.80
2019-01-12T09:13:19.907Z,1.90
2019-01-12T09:16:10.416Z,2.00
2019-01-12T09:19:00.031Z,2.70
2019-01-12T09:22:30.583Z,2.33
2019-01-12T09:25:34.747Z,2.37
2019-01-12T09:28:22.698Z,2.33
2019-01-12T09:31:21.770Z,2.00
2019-01-12T09:34:25.693Z,2.00
2019-01-12T09:37:57.267Z,1.90
2019-01-12T09:41:17.919Z,1.97
2019-01-12T09:44:12.120Z,2.00
2019-01-12T09:47:43.733Z,2.10
2019-01-12T09:51:07.885Z,1.77
2019-01-12T09:54:05.808Z,1.70
2019-01-12T10:00:04.940Z,1.90
2019-01-12T10:02:54.261Z,1.50
2019-01-12T10:06:26.260Z,1.67
2019-01-12T10:09:19.258Z,1.90
2019-01-12T10:12:23.007Z,1.60
2019-01-12T10:15:15.008Z,2.40
2019-01-12T10:18:39.158Z,1.70
2019-01-12T10:21:47.461Z,1.60
2019-01-12T10:24:57.086Z,1.83
2019-01-12T10:35:05.280Z,1.50
2019-01-12T10:37:15.608Z,1.43
2019-01-12T10:40:20.477Z,2.00
2019-01-12T10:43:20.640Z,1.73
2019-01-12T10:47:00.483Z,1.77
2019-01-12T11:03:01.117Z,0.82
2019-01-12T11:06:15.634Z,1.62
2019-01-12T11:09:54.605Z,2.40
2019-01-12T11:13:09.918Z,3.90
2019-01-12T11:19:21.259Z,2.20
2019-01-12T11:22:40.060Z,1.70
2019-01-12T11:29:15.336Z,1.40
2019-01-12T11:34:49.853Z,2.03
2019-01-12T11:37:33.539Z,1.93
2019-01-12T11:40:34.178Z,1.90
2019-01-12T11:49:43.862Z,1.00
2019-01-12T11:52:16.949Z,2.65
2019-01-12T12:01:15.698Z,3.60
2019-01-12T12:06:49.091Z,1.35
2019-01-12T12:11:46.665Z,1.23
2019-01-12T12:15:02.881Z,2.83
2019-01-12T12:17:34.768Z,4.17
2019-01-12T12:20:08.046Z,3.97
2019-01-12T12:22:40.770Z,2.40
2019-01-12T12:25:14.904Z,1.70
2019-01-12T12:27:52.920Z,2.10
2019-01-12T12:43:34.189Z,2.70
2019-01-12T12:46:49.968Z,2.27
2019-01-12T13:04:45.386Z,2.20
2019-01-12T13:28:58.948Z,2.43
2019-01-12T13:31:49.973Z,2.00
2019-01-12T13:44:29.551Z,2.57
2019-01-12T13:50:42.282Z,2.47
2019-01-12T13:54:21.410Z,2.20
2019-01-12T13:56:24.443Z,2.40
2019-01-12T14:00:10.276Z,2.20
2019-01-12T14:03:18.895Z,1.97
2019-01-12T14:08:50.612Z,2.40
2019-01-12T14:11:50.038Z,2.60
2019-01-12T14:17:48.693Z,2.00
2019-01-12T14:22:06.831Z,2.40
2019-01-12T14:29:10.644Z,2.63
2019-01-12T14:45:10.625Z,2.17
2019-01-12T14:47:41.019Z,2.23
2019-01-12T14:50:12.057Z,2.67
2019-01-12T14:52:42.898Z,2.30
2019-01-12T14:55:14.265Z,2.27
2019-01-12T14:57:46.639Z,2.30
2019-01-12T15:00:24.656Z,2.60
2019-01-12T15:03:04.308Z,2.40
2019-01-12T15:05:36.615Z,2.60
2019-01-12T15:08:32.786Z,2.73
2019-01-12T15:11:27.396Z,2.53
2019-01-12T15:21:24.764Z,3.10
2019-01-12T15:27:42.094Z,2.50
2019-01-12T15:33:45.766Z,2.30
2019-01-12T15:36:17.158Z,2.70
2019-01-12T15:38:55.301Z,2.37
2019-01-12T15:45:02.263Z,2.60
2019-01-12T15:51:39.715Z,3.30
2019-01-12T15:54:33.571Z,3.27
2019-01-12T16:03:59.849Z,3.67
2019-01-12T16:06:58.257Z,3.13
2019-01-12T16:16:17.609Z,2.80
2019-01-12T16:18:28.511Z,3.20
2019-01-12T16:25:30.118Z,2.70
2019-01-12T16:31:43.623Z,3.03
2019-01-12T16:37:28.868Z,2.80
2019-01-12T16:43:56.043Z,5.17
2019-01-12T17:09:11.545Z,3.30
2019-01-12T17:15:34.888Z,3.50
2019-01-12T17:18:48.405Z,2.97
2019-01-12T17:22:17.820Z,3.40
2019-01-12T17:24:39.027Z,3.43
2019-01-12T17:55:23.308Z,3.47
2019-01-12T18:15:18.986Z,5.10
2019-01-12T18:18:20.489Z,5.20
2019-01-12T18:28:22.313Z,5.60
2019-01-12T18:37:42.326Z,6.50
2019-01-12T18:40:34.633Z,5.60
2019-01-12T18:55:21.519Z,6.53
2019-01-12T19:10:14.514Z,4.60
2019-01-12T19:16:21.140Z,4.80
2019-01-12T19:29:29.027Z,4.33
2019-01-12T19:30:52.062Z,4.67
2019-01-12T19:43:10.153Z,4.80
2019-01-12T20:03:54.897Z,5.33
2019-01-12T20:12:55.038Z,5.60
2019-01-12T20:22:30.041Z,4.03
2019-01-12T20:36:02.410Z,5.70
2019-01-12T20:38:33.155Z,5.47
2019-01-12T20:44:45.670Z,6.07
2019-01-12T20:48:24.567Z,4.70
2019-01-12T21:16:35.180Z,3.70
2019-01-12T21:23:30.112Z,3.80
2019-01-12T21:25:49.339Z,4.20
2019-01-12T21:28:31.102Z,4.30
2019-01-12T21:31:30.993Z,4.20
2019-01-12T21:34:20.294Z,4.00
2019-01-12T21:44:23.128Z,4.17
2019-01-12T21:47:13.212Z,4.20
2019-01-12T21:58:30.550Z,4.70
2019-01-12T22:05:07.671Z,4.70
2019-01-12T22:08:31.846Z,6.67
2019-01-12T22:11:40.289Z,5.60
2019-01-12T22:14:18.830Z,4.83
2019-01-12T22:25:21.211Z,5.90
2019-01-12T22:28:03.486Z,5.27
2019-01-12T22:43:24.807Z,5.10
2019-01-12T22:46:12.969Z,5.70
2019-01-12T22:49:13.742Z,4.93
2019-01-12T22:52:41.695Z,5.40
2019-01-12T22:55:51.454Z,5.83
2019-01-12T23:01:47.555Z,5.50
2019-01-12T23:11:58.524Z,5.30
2019-01-12T23:14:34.127Z,5.40
2019-01-12T23:24:32.519Z,7.30
2019-01-12T23:30:49.937Z,6.93
2019-01-12T23:35:15.539Z,6.43
2019-01-12T23:44:48.504Z,5.77
2019-01-12T23:50:19.807Z,5.60
2019-01-12T23:53:28.369Z,5.70
2019-01-12T23:59:34.888Z,5.67
